Time;durP1;ratioP1;P1;durP2;ratioP2;P2;SDS_P1;SDS_P2;PMS_P1;PMS_P2;Temp;Humidity;BMP_temperature;BMP_pressure;BME280_temperature;BME280_humidity;BME280_pressure;Samples;Min_cycle;Max_cycle;Signal;HPM_P1;HPM_P2
2022/07/24 00:01:01;;;;;;;16.20;8.97;;;;;;;24.90;49.52;94941.88;5031710;28;20446;-78
2022/07/24 00:03:28;;;;;;;18.03;10.10;;;;;;;24.81;50.00;94948.50;5013062;28;20517;-78
2022/07/24 00:05:56;;;;;;;17.63;9.57;;;;;;;24.79;50.39;94955.13;4996749;28;20436;-77
2022/07/24 00:08:23;;;;;;;19.13;9.80;;;;;;;24.79;50.40;94960.50;5031302;28;20979;-77
2022/07/24 00:10:49;;;;;;;14.77;8.43;;;;;;;24.73;50.16;94956.84;5031625;28;20486;-78
2022/07/24 00:13:16;;;;;;;15.90;9.40;;;;;;;24.81;50.27;94963.78;5031672;28;20459;-78
2022/07/24 00:15:43;;;;;;;23.83;9.80;;;;;;;24.80;49.47;94946.03;5031696;28;20450;-78
2022/07/24 00:18:10;;;;;;;24.00;9.80;;;;;;;24.80;50.14;94946.88;5031215;28;20454;-79
2022/07/24 00:20:37;;;;;;;15.67;9.20;;;;;;;24.77;49.86;94955.34;5034383;28;20442;-77
2022/07/24 00:23:05;;;;;;;19.70;9.23;;;;;;;24.73;50.18;94961.38;5016424;28;20544;-78
2022/07/24 00:25:32;;;;;;;13.40;9.30;;;;;;;24.76;50.62;94960.94;5035331;28;20512;-77
2022/07/24 00:27:59;;;;;;;11.70;9.77;;;;;;;24.82;50.45;94954.69;5000149;28;20454;-79
2022/07/24 00:30:26;;;;;;;18.50;9.70;;;;;;;24.72;50.29;94960.56;5016338;28;20451;-78
2022/07/24 00:32:52;;;;;;;14.27;9.17;;;;;;;24.69;51.01;94947.56;5016129;28;20553;-78
2022/07/24 00:35:19;;;;;;;11.40;9.47;;;;;;;24.63;51.04;94946.56;5034826;28;20446;-79
2022/07/24 00:37:47;;;;;;;16.50;9.77;;;;;;;24.66;50.62;94950.69;5034653;28;20442;-78
2022/07/24 00:40:15;;;;;;;18.90;10.20;;;;;;;24.58;50.75;94942.91;5034434;28;20474;-80
2022/07/24 00:42:42;;;;;;;17.70;10.70;;;;;;;24.59;50.69;94940.00;5034804;28;20449;-78
2022/07/24 00:45:10;;;;;;;13.00;8.70;;;;;;;24.49;51.13;94945.00;5034848;28;20442;-76
2022/07/24 00:47:37;;;;;;;11.23;9.50;;;;;;;24.40;51.03;94940.91;5034491;28;20814;-78
2022/07/24 00:50:05;;;;;;;14.20;10.13;;;;;;;24.33;51.32;94950.88;5034445;28;20961;-78
2022/07/24 00:52:33;;;;;;;19.50;10.30;;;;;;;24.12;51.76;94951.13;5034470;28;20490;-77
2022/07/24 00:55:00;;;;;;;16.60;9.70;;;;;;;24.00;53.45;94953.66;5034525;28;20455;-78
2022/07/24 00:57:28;;;;;;;11.23;10.03;;;;;;;23.84;54.77;94943.38;5034563;28;20450;-78
2022/07/24 00:59:55;;;;;;;11.47;9.03;;;;;;;23.80;55.01;94937.63;5015616;28;20905;-78
2022/07/24 01:02:21;;;;;;;16.93;8.87;;;;;;;23.78;55.26;94950.41;5034213;28;20443;-78
2022/07/24 01:04:49;;;;;;;12.67;9.47;;;;;;;23.82;55.36;94940.09;5034170;28;20465;-77
2022/07/24 01:07:17;;;;;;;13.00;8.23;;;;;;;23.85;55.36;94948.53;5034025;28;20537;-78
2022/07/24 01:09:44;;;;;;;11.13;9.33;;;;;;;23.92;55.11;94941.28;5015471;28;20437;-79
2022/07/24 01:12:13;;;;;;;15.20;9.50;;;;;;;23.92;54.01;94948.50;5033809;28;20887;-78
2022/07/24 01:14:41;;;;;;;14.23;10.20;;;;;;;23.92;54.57;94943.13;5034542;28;20455;-78
2022/07/24 01:17:08;;;;;;;14.80;8.47;;;;;;;23.90;54.62;94946.03;5034046;28;20451;-79
2022/07/24 01:19:34;;;;;;;12.00;10.73;;;;;;;23.94;55.42;94944.56;5034193;28;20453;-79
2022/07/24 01:22:03;;;;;;;18.20;9.50;;;;;;;23.91;54.64;94946.84;5033960;28;20461;-79
2022/07/24 01:24:30;;;;;;;11.70;9.80;;;;;;;23.93;55.39;94950.97;5034273;28;20450;-79
2022/07/24 01:26:56;;;;;;;12.00;8.60;;;;;;;23.92;54.91;94953.84;5033873;28;20453;-78
2022/07/24 01:29:23;;;;;;;10.23;8.60;;;;;;;23.96;55.40;94955.06;5033901;28;20451;-78
2022/07/24 01:31:50;;;;;;;15.50;9.70;;;;;;;23.96;56.02;94945.19;5032991;28;20482;-78
2022/07/24 01:34:17;;;;;;;16.30;11.17;;;;;;;23.98;54.79;94943.09;4998833;28;20964;-78
2022/07/24 01:36:44;;;;;;;23.37;9.63;;;;;;;23.57;55.03;94945.28;5033664;28;20467;-79
2022/07/24 01:39:12;;;;;;;14.20;8.90;;;;;;;23.61;55.43;94941.16;5033438;28;20447;-79
2022/07/24 01:41:39;;;;;;;13.73;9.90;;;;;;;23.62;54.68;94942.78;5033505;28;20454;-78
2022/07/24 01:44:06;;;;;;;16.10;9.47;;;;;;;23.58;53.64;94938.88;5015005;28;20505;-77
2022/07/24 01:46:32;;;;;;;13.93;8.73;;;;;;;23.60;54.26;94931.47;4998402;28;20443;-79
2022/07/24 01:48:59;;;;;;;15.03;9.07;;;;;;;23.64;54.46;94940.72;5033577;28;20988;-80
2022/07/24 01:51:26;;;;;;;10.93;8.90;;;;;;;23.40;55.86;94934.97;5033313;28;20494;-77
2022/07/24 01:53:53;;;;;;;17.20;9.83;;;;;;;23.45;55.30;94929.00;5033400;28;20451;-79
2022/07/24 01:56:21;;;;;;;12.07;8.47;;;;;;;23.56;55.40;94932.91;5033260;28;20446;-79
2022/07/24 01:58:48;;;;;;;10.60;9.57;;;;;;;23.61;53.87;94928.56;5033187;28;20969;-80
2022/07/24 02:01:14;;;;;;;18.30;9.70;;;;;;;23.67;52.84;94922.38;5033253;28;20458;-77
2022/07/24 02:03:41;;;;;;;22.67;10.93;;;;;;;23.73;52.46;94923.41;5033223;28;20933;-78
2022/07/24 02:06:08;;;;;;;12.70;9.40;;;;;;;23.74;52.59;94915.16;5033057;28;20447;-78
2022/07/24 02:08:35;;;;;;;14.20;9.17;;;;;;;23.79;51.06;94918.03;5033102;28;20443;-78
2022/07/24 02:11:02;;;;;;;16.87;8.70;;;;;;;23.89;51.81;94928.28;5032781;28;20443;-78
2022/07/24 02:13:30;;;;;;;12.27;8.93;;;;;;;23.98;51.27;94921.66;5014289;28;20934;-78
2022/07/24 02:15:57;;;;;;;17.63;9.30;;;;;;;24.07;50.85;94919.59;5033270;28;20454;-78
2022/07/24 02:18:24;;;;;;;11.37;8.90;;;;;;;24.17;50.83;94924.47;5014486;28;20446;-78
2022/07/24 02:20:51;;;;;;;14.30;8.70;;;;;;;24.20;50.81;94922.19;5033006;28;20447;-78
2022/07/24 02:23:18;;;;;;;13.70;8.30;;;;;;;24.22;50.42;94916.63;5032740;28;20498;-78
2022/07/24 02:25:46;;;;;;;11.70;10.20;;;;;;;24.35;50.83;94928.16;5032729;28;20533;-79
2022/07/24 02:28:13;;;;;;;15.50;9.57;;;;;;;24.37;51.53;94930.63;5032489;28;20446;-78
2022/07/24 02:30:42;;;;;;;15.70;9.27;;;;;;;24.34;49.98;94921.16;5032758;28;20450;-78
2022/07/24 02:33:09;;;;;;;14.27;9.27;;;;;;;24.34;50.21;94923.00;4998020;28;20888;-78
2022/07/24 02:35:36;;;;;;;9.20;8.27;;;;;;;24.35;49.62;94919.28;5032968;28;20446;-77
2022/07/24 02:38:03;;;;;;;11.30;9.37;;;;;;;24.35;49.84;94916.59;5032366;28;20465;-77
2022/07/24 02:40:30;;;;;;;20.00;8.80;;;;;;;24.34;50.52;94920.31;4997762;28;20443;-78
2022/07/24 02:42:57;;;;;;;11.90;8.70;;;;;;;24.29;50.10;94915.59;5031750;28;20442;-78
2022/07/24 02:45:24;;;;;;;15.90;9.67;;;;;;;24.22;49.11;94922.81;5032649;28;20533;-78
2022/07/24 02:47:54;;;;;;;22.47;10.07;;;;;;;24.16;49.66;94918.28;5032478;28;20500;-78
2022/07/24 02:50:22;;;;;;;14.10;9.00;;;;;;;24.12;49.70;94925.13;5031903;28;21042;-79
2022/07/24 02:52:49;;;;;;;11.03;9.60;;;;;;;24.13;50.05;94917.91;5032291;28;20486;-79
2022/07/24 02:55:17;;;;;;;12.13;9.60;;;;;;;24.05;49.53;94925.16;5032185;28;21005;-79
2022/07/24 02:57:44;;;;;;;13.17;9.23;;;;;;;23.96;49.61;94915.69;5032520;28;20779;-78
2022/07/24 03:00:14;;;;;;;13.43;9.77;;;;;;;23.93;49.69;94915.28;5032366;28;20446;-79
2022/07/24 03:02:41;;;;;;;18.47;9.63;;;;;;;23.88;49.72;94912.44;5013578;28;20451;-79
2022/07/24 03:05:10;;;;;;;29.00;9.37;;;;;;;23.85;50.21;94907.50;4997087;28;21052;-78
2022/07/24 03:07:38;;;;;;;12.60;9.03;;;;;;;23.84;51.29;94920.06;5032124;28;20478;-78
2022/07/24 03:10:06;;;;;;;14.77;9.50;;;;;;;23.76;51.64;94920.31;5032147;28;20450;-79
2022/07/24 03:12:33;;;;;;;14.63;9.13;;;;;;;23.70;51.15;94919.28;5031789;28;20846;-78
2022/07/24 03:15:00;;;;;;;12.83;8.80;;;;;;;23.59;51.47;94924.47;5031929;28;20443;-78
2022/07/24 03:17:27;;;;;;;21.47;9.37;;;;;;;23.46;51.15;94926.13;5032001;28;20949;-78
2022/07/24 03:19:54;;;;;;;18.97;9.10;;;;;;;23.37;50.77;94922.00;5031861;28;20504;-76
2022/07/24 03:22:22;;;;;;;19.23;9.40;;;;;;;23.31;50.93;94914.78;5031639;28;20999;-78
2022/07/24 03:24:49;;;;;;;14.93;8.53;;;;;;;23.31;51.20;94913.97;5031695;28;20853;-79
2022/07/24 03:27:16;;;;;;;14.80;9.27;;;;;;;23.29;51.60;94916.03;5013210;28;20447;-78
2022/07/24 03:29:42;;;;;;;12.90;9.30;;;;;;;23.33;52.29;94923.44;5031830;28;20789;-77
2022/07/24 03:32:09;;;;;;;9.50;8.60;;;;;;;23.38;51.95;94930.84;5031543;28;20486;-78
2022/07/24 03:34:36;;;;;;;14.97;9.70;;;;;;;23.48;52.31;94925.91;5031987;28;20812;-78
2022/07/24 03:37:03;;;;;;;15.93;9.50;;;;;;;23.56;52.91;94933.75;5031803;28;20447;-79
2022/07/24 03:39:31;;;;;;;15.80;10.30;;;;;;;23.66;53.04;94927.94;5032077;28;20468;-78
2022/07/24 03:41:58;;;;;;;11.73;9.30;;;;;;;23.74;52.45;94925.88;5031833;28;20451;-78
2022/07/24 03:44:25;;;;;;;19.37;9.63;;;;;;;23.73;51.41;94932.28;5013264;28;20840;-77
2022/07/24 03:46:51;;;;;;;12.17;9.10;;;;;;;23.66;51.59;94941.34;5012918;28;20449;-78
2022/07/24 03:49:18;;;;;;;15.07;10.10;;;;;;;23.55;52.79;94937.44;5031263;28;20451;-78
2022/07/24 03:51:45;;;;;;;15.17;9.37;;;;;;;23.61;52.80;94939.28;4996869;28;20945;-77
2022/07/24 03:54:12;;;;;;;12.57;9.40;;;;;;;23.69;52.60;94947.09;5032795;28;20480;-78
2022/07/24 03:56:40;;;;;;;17.33;9.67;;;;;;;23.77;53.09;94943.41;5034390;28;20956;-77
2022/07/24 03:59:07;;;;;;;14.27;8.60;;;;;;;23.81;52.30;94943.78;5035528;28;20465;-79
2022/07/24 04:01:33;;;;;;;13.90;8.87;;;;;;;23.93;52.72;94942.91;5012631;28;20440;-75
2022/07/24 04:04:04;;;;;;;17.00;9.83;;;;;;;24.12;52.06;94937.72;5025192;28;20455;-77
2022/07/24 04:06:31;;;;;;;16.07;8.23;;;;;;;24.38;51.12;94937.63;5035830;28;20508;-78
2022/07/24 04:08:58;;;;;;;13.03;9.17;;;;;;;24.64;50.11;94933.97;5035072;28;20861;-78
2022/07/24 04:11:25;;;;;;;13.13;10.53;;;;;;;24.84;50.12;94931.16;5035367;28;20449;-78
2022/07/24 04:13:53;;;;;;;10.43;9.27;;;;;;;25.08;49.95;94929.56;5034980;28;20497;-78
2022/07/24 04:16:20;;;;;;;18.20;9.67;;;;;;;25.34;49.60;94934.72;5015543;28;20976;-78
2022/07/24 04:18:47;;;;;;;13.23;8.60;;;;;;;25.60;48.79;94933.66;5015413;28;20454;-77
2022/07/24 04:21:13;;;;;;;10.63;9.20;;;;;;;25.77;48.29;94931.25;5015345;28;20447;-78
2022/07/24 04:23:40;;;;;;;17.57;8.97;;;;;;;26.01;48.23;94933.03;5015646;28;20462;-78
2022/07/24 04:26:07;;;;;;;16.77;9.47;;;;;;;26.21;47.62;94932.81;5013121;28;20942;-78
2022/07/24 04:28:35;;;;;;;13.93;9.27;;;;;;;26.43;47.12;94936.69;5015076;28;20459;-79
2022/07/24 04:31:04;;;;;;;14.50;10.27;;;;;;;26.68;47.47;94938.44;5015007;28;20447;-79
2022/07/24 04:33:30;;;;;;;14.37;9.07;;;;;;;26.66;46.76;94941.38;5015060;28;20486;-78
2022/07/24 04:35:57;;;;;;;13.10;9.57;;;;;;;26.78;46.50;94944.09;5014985;28;20455;-79
2022/07/24 04:38:24;;;;;;;14.00;10.20;;;;;;;26.93;46.96;94947.19;5015038;28;20451;-78
2022/07/24 04:40:51;;;;;;;18.40;11.47;;;;;;;27.06;46.56;94941.63;5014955;28;20521;-78
2022/07/24 04:43:18;;;;;;;12.37;10.17;;;;;;;27.05;46.58;94941.84;5015262;28;20443;-78
2022/07/24 04:45:45;;;;;;;15.70;9.90;;;;;;;27.03;46.31;94943.97;4996469;28;20471;-76
2022/07/24 04:48:13;;;;;;;19.23;9.47;;;;;;;26.95;46.43;94934.31;5014745;28;20458;-78
2022/07/24 04:50:40;;;;;;;16.50;10.63;;;;;;;27.00;47.14;94939.03;5014898;28;20478;-79
2022/07/24 04:53:07;;;;;;;17.63;10.87;;;;;;;27.20;46.91;94944.13;4996027;28;21002;-78
2022/07/24 04:55:33;;;;;;;18.87;10.10;;;;;;;27.37;46.07;94947.78;4996308;28;20436;-79
2022/07/24 04:58:00;;;;;;;23.67;10.23;;;;;;;27.43;47.30;94952.22;5014528;28;20815;-79
2022/07/24 05:00:27;;;;;;;18.20;9.63;;;;;;;27.69;46.16;94949.09;5014879;28;20443;-79
2022/07/24 05:02:54;;;;;;;13.37;9.63;;;;;;;28.07;45.55;94956.72;5014427;28;20456;-79
2022/07/24 05:05:22;;;;;;;13.30;10.63;;;;;;;27.97;44.25;94952.97;5013757;28;20452;-78
2022/07/24 05:07:49;;;;;;;15.17;10.30;;;;;;;27.43;45.73;94963.81;5014040;28;20798;-79
2022/07/24 05:10:16;;;;;;;14.00;11.00;;;;;;;27.00;47.44;94968.66;5014792;28;20455;-78
2022/07/24 05:12:43;;;;;;;16.60;11.20;;;;;;;27.07;47.49;94964.81;5012092;28;20537;-78
2022/07/24 05:15:11;;;;;;;15.00;10.57;;;;;;;26.96;47.29;94967.47;5014572;28;20479;-78
2022/07/24 05:17:38;;;;;;;20.03;12.70;;;;;;;26.98;47.16;94960.78;4995586;28;20907;-78
2022/07/24 05:20:06;;;;;;;21.53;11.83;;;;;;;26.80;48.72;94958.16;5014357;28;20549;-76
2022/07/24 05:22:34;;;;;;;19.57;12.00;;;;;;;26.82;49.41;94967.63;4995952;28;20455;-78
2022/07/24 05:25:01;;;;;;;16.30;10.70;;;;;;;27.05;49.36;94974.19;5013971;28;20456;-79
2022/07/24 05:27:28;;;;;;;17.87;11.20;;;;;;;27.10;48.29;94972.44;5014212;28;20447;-78
2022/07/24 05:29:55;;;;;;;14.67;11.17;;;;;;;27.36;47.67;94973.09;5014345;28;20447;-77
2022/07/24 05:32:21;;;;;;;14.47;10.80;;;;;;;27.68;46.92;94969.03;5014297;28;20478;-79
2022/07/24 05:34:48;;;;;;;18.03;11.10;;;;;;;28.06;46.53;94973.16;5013755;28;20447;-79
2022/07/24 05:37:15;;;;;;;15.70;11.30;;;;;;;28.45;44.96;94959.94;5012785;28;20509;-78
2022/07/24 05:39:43;;;;;;;17.63;11.83;;;;;;;28.43;45.01;94970.16;4995599;28;20443;-79
2022/07/24 05:42:10;;;;;;;17.63;11.10;;;;;;;28.58;44.31;94967.75;5014109;28;20494;-79
2022/07/24 05:44:37;;;;;;;22.23;11.57;;;;;;;28.77;44.29;94958.41;5013824;28;20459;-78
2022/07/24 05:47:04;;;;;;;15.67;10.67;;;;;;;29.03;43.06;94961.63;5013885;28;20462;-79
2022/07/24 05:49:31;;;;;;;20.50;10.90;;;;;;;29.33;43.48;94969.44;5013573;28;20467;-78
2022/07/24 05:51:58;;;;;;;14.13;10.67;;;;;;;29.70;42.19;94967.91;5013778;28;20444;-79
2022/07/24 05:54:25;;;;;;;13.40;10.53;;;;;;;30.11;41.59;94955.03;5013372;28;20483;-79
2022/07/24 05:56:53;;;;;;;21.53;10.33;;;;;;;30.54;40.19;94959.63;4995388;28;20451;-78
2022/07/24 05:59:20;;;;;;;11.23;9.47;;;;;;;30.76;38.43;94949.63;5013496;28;20454;-77
2022/07/24 06:01:47;;;;;;;19.53;10.17;;;;;;;31.06;38.03;94953.72;5013554;28;20451;-79
2022/07/24 06:04:13;;;;;;;11.47;9.57;;;;;;;31.35;36.78;94946.97;5013612;28;20456;-79
2022/07/24 06:06:40;;;;;;;11.80;9.43;;;;;;;31.57;36.55;94948.78;5013203;28;20447;-79
2022/07/24 06:09:07;;;;;;;17.00;10.00;;;;;;;31.70;36.06;94951.88;5013299;28;20454;-80
2022/07/24 06:11:34;;;;;;;13.00;8.90;;;;;;;31.84;35.38;94946.03;5013593;28;20451;-79
2022/07/24 06:14:03;;;;;;;15.57;10.10;;;;;;;31.99;35.37;94946.94;5013265;28;20570;-79
2022/07/24 06:16:29;;;;;;;19.03;9.50;;;;;;;32.14;35.68;94937.25;5013235;28;20936;-79
2022/07/24 06:18:56;;;;;;;17.60;10.67;;;;;;;32.36;34.95;94937.91;5012884;28;20450;-80
2022/07/24 06:21:23;;;;;;;12.63;9.60;;;;;;;32.61;35.23;94939.94;5013628;28;20455;-79
2022/07/24 06:23:50;;;;;;;18.20;10.07;;;;;;;32.90;35.03;94943.03;5013437;28;21018;-79
2022/07/24 06:26:17;;;;;;;11.60;9.40;;;;;;;33.10;33.43;94940.38;5013104;28;20813;-78
2022/07/24 06:28:44;;;;;;;11.30;8.37;;;;;;;33.33;33.74;94947.22;5013205;28;20451;-79
2022/07/24 06:31:12;;;;;;;11.07;9.50;;;;;;;33.56;33.15;94941.25;5013137;28;20454;-78
2022/07/24 06:33:39;;;;;;;12.00;9.60;;;;;;;33.75;32.50;94930.59;5013157;28;20486;-80
2022/07/24 06:36:06;;;;;;;13.93;10.70;;;;;;;33.86;33.02;94926.84;5012902;28;20470;-79
2022/07/24 06:38:33;;;;;;;13.20;9.70;;;;;;;33.94;32.14;94919.19;5013073;28;20451;-79
2022/07/24 06:41:00;;;;;;;9.73;8.70;;;;;;;34.01;31.79;94927.88;5013025;28;20436;-79
2022/07/24 06:43:27;;;;;;;18.90;9.40;;;;;;;34.06;31.77;94919.69;5013068;28;20466;-79
2022/07/24 06:45:53;;;;;;;17.07;10.40;;;;;;;34.12;31.75;94918.59;5012634;28;20471;-78
2022/07/24 06:48:22;;;;;;;11.70;10.50;;;;;;;34.38;32.60;94919.34;5012494;28;20456;-79
2022/07/24 06:50:49;;;;;;;13.93;9.70;;;;;;;34.61;31.23;94920.63;4993911;28;20893;-78
2022/07/24 06:53:15;;;;;;;14.60;10.30;;;;;;;34.77;31.40;94919.47;4978051;28;20480;-79
2022/07/24 06:55:42;;;;;;;22.03;10.50;;;;;;;34.91;30.91;94923.22;5012647;28;20439;-80
2022/07/24 06:58:09;;;;;;;13.97;9.20;;;;;;;35.00;30.13;94918.81;5012819;28;20450;-79
2022/07/24 07:00:36;;;;;;;19.93;9.47;;;;;;;35.06;30.03;94917.69;5012915;28;20454;-80
2022/07/24 07:03:03;;;;;;;13.77;10.27;;;;;;;35.23;30.75;94921.91;5012402;28;20506;-79
2022/07/24 07:05:31;;;;;;;12.97;9.17;;;;;;;35.29;31.00;94924.34;4994050;28;20827;-79
2022/07/24 07:07:58;;;;;;;18.97;10.57;;;;;;;35.16;30.39;94919.50;5012561;28;20462;-80
2022/07/24 07:10:25;;;;;;;13.70;9.87;;;;;;;35.08;30.95;94918.22;5012500;28;20455;-79
2022/07/24 07:12:51;;;;;;;16.23;9.57;;;;;;;34.99;30.42;94914.47;5012279;28;20681;-79
2022/07/24 07:15:19;;;;;;;13.17;9.50;;;;;;;35.01;31.97;94909.53;5012380;28;20818;-79
2022/07/24 07:17:45;;;;;;;21.17;10.73;;;;;;;35.00;29.83;94915.28;5012285;28;20811;-80
2022/07/24 07:20:13;;;;;;;19.70;10.77;;;;;;;34.97;30.45;94922.06;5012755;28;20849;-79
2022/07/24 07:22:43;;;;;;;11.80;9.67;;;;;;;34.37;31.16;94913.09;5012355;28;20474;-80
2022/07/24 07:25:10;;;;;;;16.77;10.90;;;;;;;33.84;30.65;94907.22;5012698;28;20515;-78
2022/07/24 07:27:39;;;;;;;16.30;11.93;;;;;;;33.62;31.53;94916.75;5012393;28;20451;-79
2022/07/24 07:30:07;;;;;;;31.70;12.10;;;;;;;33.73;32.30;94908.28;5015125;28;20712;-79
2022/07/24 07:32:34;;;;;;;19.00;11.13;;;;;;;33.91;31.35;94906.13;5016158;28;20457;-80
2022/07/24 07:35:01;;;;;;;21.87;11.37;;;;;;;34.07;32.64;94907.69;5016569;28;20491;-79
2022/07/24 07:37:28;;;;;;;23.87;11.27;;;;;;;34.21;32.91;94908.75;5016445;28;20853;-80
2022/07/24 07:39:57;;;;;;;24.30;11.60;;;;;;;34.22;31.69;94907.66;5015941;28;20812;-79
2022/07/24 07:42:24;;;;;;;13.90;11.40;;;;;;;34.35;32.76;94906.28;5016196;28;20454;-79
2022/07/24 07:44:51;;;;;;;18.13;10.97;;;;;;;34.29;31.83;94905.47;4997716;28;20871;-79
2022/07/24 07:47:17;;;;;;;21.00;12.27;;;;;;;34.31;31.83;94906.00;5016306;28;20466;-79
2022/07/24 07:49:44;;;;;;;14.73;12.00;;;;;;;34.26;32.36;94908.75;5015986;28;20484;-80
2022/07/24 07:52:11;;;;;;;12.70;11.37;;;;;;;34.35;32.98;94900.81;5015872;28;20933;-79
2022/07/24 07:54:38;;;;;;;21.37;12.07;;;;;;;34.31;31.93;94892.38;5015939;28;20479;-80
2022/07/24 07:57:06;;;;;;;19.70;12.47;;;;;;;34.55;33.76;94897.22;5015708;28;20451;-80
2022/07/24 07:59:33;;;;;;;15.53;11.40;;;;;;;34.76;32.04;94893.28;5016009;28;20443;-80
2022/07/24 08:02:00;;;;;;;14.20;10.73;;;;;;;34.71;32.08;94893.31;5016011;28;20447;-80
2022/07/24 08:04:26;;;;;;;17.80;11.00;;;;;;;34.77;31.08;94905.81;5015812;28;20443;-79
2022/07/24 08:06:53;;;;;;;11.60;10.50;;;;;;;34.87;31.45;94891.34;5015884;28;20448;-79
2022/07/24 08:09:20;;;;;;;20.47;11.90;;;;;;;35.00;30.37;94904.34;5015607;28;20440;-80
2022/07/24 08:11:47;;;;;;;19.53;11.00;;;;;;;35.01;30.50;94903.25;4996967;28;20531;-79
2022/07/24 08:14:15;;;;;;;14.93;11.23;;;;;;;35.11;29.88;94905.09;5015538;28;20467;-79
2022/07/24 08:16:42;;;;;;;19.77;12.00;;;;;;;35.12;29.59;94904.00;5015570;28;20807;-80
2022/07/24 08:19:09;;;;;;;15.80;10.50;;;;;;;35.21;30.32;94902.28;5015374;28;20938;-79
2022/07/24 08:21:36;;;;;;;69.33;14.93;;;;;;;35.33;29.25;94909.06;5015312;28;20497;-79
2022/07/24 08:24:03;;;;;;;25.17;11.30;;;;;;;35.37;27.76;94904.66;5015318;28;20447;-80
2022/07/24 08:26:30;;;;;;;14.63;10.70;;;;;;;35.38;27.90;94900.00;5015002;28;20531;-79
2022/07/24 08:28:57;;;;;;;12.97;11.00;;;;;;;35.41;27.87;94906.81;5015578;28;20454;-79
2022/07/24 08:31:26;;;;;;;14.43;11.13;;;;;;;35.29;28.87;94899.78;5015335;28;20457;-79
2022/07/24 08:33:53;;;;;;;13.90;10.87;;;;;;;35.14;27.75;94902.63;5014881;28;20494;-79
2022/07/24 08:36:20;;;;;;;13.27;10.77;;;;;;;35.19;28.80;94899.84;5012897;28;20451;-79
2022/07/24 08:38:47;;;;;;;13.40;11.03;;;;;;;35.30;28.16;94901.41;5014923;28;20467;-80
2022/07/24 08:41:14;;;;;;;13.50;11.00;;;;;;;35.28;28.78;94900.88;5015209;28;20443;-79
2022/07/24 08:43:42;;;;;;;21.77;12.10;;;;;;;35.26;29.46;94902.25;5015384;28;20461;-79
2022/07/24 08:46:11;;;;;;;18.87;12.03;;;;;;;35.06;28.36;94904.03;5014752;28;20452;-79
2022/07/24 08:48:44;;;;;;;20.27;12.27;;;;;;;34.94;29.09;94898.09;5014994;28;20482;-80
2022/07/24 08:51:13;;;;;;;21.00;11.20;;;;;;;34.83;28.35;94896.50;5014794;28;20519;-79
2022/07/24 08:53:40;;;;;;;22.60;11.80;;;;;;;34.92;28.72;94891.28;5014917;28;20550;-79
2022/07/24 08:56:07;;;;;;;12.40;9.70;;;;;;;34.99;28.66;94895.38;5015110;28;20444;-79
2022/07/24 08:58:37;;;;;;;16.07;12.17;;;;;;;35.00;28.45;94891.53;5014979;28;20447;-79
2022/07/24 09:01:04;;;;;;;18.60;11.10;;;;;;;35.03;28.56;94885.50;5014680;28;20798;-79
2022/07/24 09:03:41;;;;;;;21.77;14.53;;;;;;;34.99;29.48;94898.09;5014465;28;20440;-79
2022/07/24 09:06:09;;;;;;;15.30;11.07;;;;;;;34.89;31.03;94891.88;5014421;28;20478;-79
2022/07/24 09:08:36;;;;;;;13.17;11.00;;;;;;;34.71;30.42;94893.31;5014667;28;20486;-79
2022/07/24 09:11:05;;;;;;;22.23;11.20;;;;;;;34.57;31.70;94886.84;5014721;28;20451;-79
2022/07/24 09:16:22;;;;;;;24.17;13.10;;;;;;;34.29;31.27;94880.94;5014197;28;20493;-80
2022/07/24 09:18:51;;;;;;;17.43;10.87;;;;;;;34.21;31.50;94878.78;5014321;28;20447;-78
2022/07/24 09:21:18;;;;;;;19.83;12.03;;;;;;;34.27;31.92;94877.69;5014290;28;20485;-79
2022/07/24 09:23:46;;;;;;;13.57;10.60;;;;;;;34.44;32.28;94880.91;5014244;28;20459;-77
2022/07/24 09:26:13;;;;;;;14.90;11.90;;;;;;;34.64;31.98;94876.44;5014397;28;20444;-79
2022/07/24 09:28:51;;;;;;;18.27;11.63;;;;;;;34.83;31.74;94885.59;5014722;28;20447;-79
2022/07/24 09:31:17;;;;;;;17.10;12.07;;;;;;;35.02;31.13;94886.63;5014391;28;20451;-79
2022/07/24 09:33:44;;;;;;;21.43;11.20;;;;;;;35.14;30.69;94886.25;5013828;28;20494;-79
2022/07/24 09:36:18;;;;;;;13.50;11.27;;;;;;;35.21;29.93;94875.00;5011766;28;20440;-79
2022/07/24 09:38:48;;;;;;;20.13;11.40;;;;;;;35.28;29.13;94886.44;5014161;28;20455;-79
2022/07/24 09:41:20;;;;;;;18.40;12.10;;;;;;;35.33;29.89;94881.78;4995624;28;20850;-78
2022/07/24 09:43:58;;;;;;;13.60;10.70;;;;;;;35.33;30.12;94878.19;5014151;28;20530;-79
2022/07/24 09:46:26;;;;;;;17.50;11.40;;;;;;;35.34;31.45;94885.31;5014211;28;20487;-79
2022/07/24 09:48:56;;;;;;;11.70;10.60;;;;;;;35.35;31.29;94870.56;5014092;28;20505;-78
2022/07/24 09:51:26;;;;;;;12.13;10.90;;;;;;;35.36;30.99;94866.72;5014405;28;20479;-78
2022/07/24 09:53:55;;;;;;;21.30;12.17;;;;;;;35.26;31.25;94861.31;5013375;28;20494;-78
2022/07/24 09:56:22;;;;;;;17.13;11.70;;;;;;;35.15;31.78;94862.50;4995339;28;20444;-78
2022/07/24 09:58:51;;;;;;;23.00;12.00;;;;;;;35.14;32.53;94858.16;5013962;28;20451;-79
2022/07/24 10:01:20;;;;;;;16.80;13.47;;;;;;;35.20;32.50;94854.28;5013604;28;20462;-79
2022/07/24 10:03:48;;;;;;;24.90;10.70;;;;;;;35.24;33.79;94858.88;5013597;28;20447;-79
2022/07/24 10:06:18;;;;;;;22.87;11.90;;;;;;;35.26;32.14;94850.41;5013766;28;20455;-78
2022/07/24 10:08:48;;;;;;;14.03;11.20;;;;;;;35.32;31.13;94850.09;5013354;28;20487;-78
2022/07/24 10:11:15;;;;;;;21.53;9.80;;;;;;;35.35;30.94;94852.28;4994873;28;20443;-79
2022/07/24 10:13:43;;;;;;;14.97;11.50;;;;;;;35.36;30.96;94839.44;5013391;28;20455;-79
2022/07/24 10:16:31;;;;;;;13.00;9.90;;;;;;;35.34;28.43;94842.47;5013402;28;20455;-78
2022/07/24 10:19:00;;;;;;;11.63;10.40;;;;;;;35.26;28.28;94842.22;5013097;28;20459;-78
2022/07/24 10:21:28;;;;;;;19.53;10.23;;;;;;;35.22;28.05;94841.16;5013191;28;20450;-78
2022/07/24 10:24:39;;;;;;;15.27;11.37;;;;;;;35.26;30.03;94842.22;5013653;28;20453;-80
2022/07/24 10:27:23;;;;;;;12.23;10.60;;;;;;;35.20;29.84;94840.63;5013034;28;20459;-78
2022/07/24 10:29:52;;;;;;;18.37;11.50;;;;;;;35.17;32.48;94843.94;5013286;28;20447;-79
2022/07/24 10:32:20;;;;;;;16.50;10.70;;;;;;;35.21;32.09;94836.81;5012932;28;20938;-78
2022/07/24 10:34:50;;;;;;;11.60;10.50;;;;;;;35.27;29.65;94844.66;5013011;28;20491;-79
2022/07/24 10:37:22;;;;;;;20.73;10.70;;;;;;;35.23;28.11;94834.59;5012829;28;20447;-79
2022/07/24 10:40:01;;;;;;;12.33;9.70;;;;;;;35.22;28.50;94827.50;5012721;28;20451;-78
2022/07/24 10:42:28;;;;;;;14.90;10.57;;;;;;;35.23;29.04;94824.50;5012694;28;20934;-79
2022/07/24 10:45:16;;;;;;;21.70;10.47;;;;;;;35.22;27.68;94828.31;5010516;28;20459;-79
2022/07/24 10:47:44;;;;;;;16.87;10.17;;;;;;;35.20;27.61;94819.63;5012908;28;20478;-79
2022/07/24 10:50:11;;;;;;;16.57;10.67;;;;;;;35.23;28.50;94818.22;5012760;28;20479;-79
2022/07/24 10:52:40;;;;;;;14.83;10.37;;;;;;;35.26;29.46;94815.72;5012563;28;20807;-78
2022/07/24 10:55:30;;;;;;;13.27;11.20;;;;;;;35.34;28.10;94812.44;5012548;28;20547;-79
2022/07/24 10:58:00;;;;;;;12.77;9.63;;;;;;;35.39;27.87;94806.94;5012483;28;20454;-78
2022/07/24 11:00:32;;;;;;;12.33;9.70;;;;;;;35.49;27.37;94806.00;5012472;28;20942;-78
2022/07/24 11:03:03;;;;;;;10.50;9.40;;;;;;;35.59;28.80;94803.19;5012158;28;20451;-78
2022/07/24 11:05:33;;;;;;;12.70;9.77;;;;;;;35.69;27.58;94800.34;5012105;28;20445;-78
2022/07/24 11:08:34;;;;;;;15.23;10.10;;;;;;;35.80;27.38;94800.22;5012409;28;20501;-79
2022/07/24 11:11:15;;;;;;;12.50;9.73;;;;;;;35.79;26.86;94793.13;5012409;28;20487;-76
2022/07/24 11:13:53;;;;;;;11.17;10.20;;;;;;;35.82;27.30;94787.09;5012353;28;20451;-82
2022/07/24 11:16:26;;;;;;;15.43;10.37;;;;;;;35.91;26.67;94786.19;5012585;28;20541;-79
2022/07/24 11:19:32;;;;;;;9.73;8.77;;;;;;;36.00;25.80;94784.44;5012282;28;20458;-78
2022/07/24 11:22:10;;;;;;;12.07;9.60;;;;;;;36.10;25.78;94780.75;5009817;28;20550;-81
2022/07/24 11:25:10;;;;;;;12.80;10.20;;;;;;;36.19;27.24;94784.47;5009722;28;20447;-80
2022/07/24 11:28:00;;;;;;;15.50;10.77;;;;;;;36.26;26.45;94781.38;4900395;29;20439;-79
2022/07/24 11:30:29;;;;;;;12.27;9.53;;;;;;;36.21;26.14;94773.25;4875703;29;20996;-80